createdAt,value
2022-08-24T00:00:32.728Z,12.27
2022-08-24T00:04:46.873Z,12.57
2022-08-24T00:09:03.692Z,13.02
2022-08-24T00:13:19.185Z,13.03
2022-08-24T00:17:34.309Z,12.48
2022-08-24T00:21:48.438Z,12.98
2022-08-24T00:26:03.348Z,13.13
2022-08-24T00:30:20.835Z,15.82
2022-08-24T00:34:35.767Z,12.05
2022-08-24T00:38:50.594Z,13.43
2022-08-24T00:43:07.354Z,12.07
2022-08-24T00:47:25.410Z,12.27
2022-08-24T00:51:43.333Z,12.20
2022-08-24T00:56:00.640Z,11.60
2022-08-24T01:00:20.079Z,12.23
2022-08-24T01:04:41.111Z,12.18
2022-08-24T01:08:56.804Z,12.10
2022-08-24T01:13:13.644Z,14.73
2022-08-24T01:17:45.410Z,13.88
2022-08-24T01:22:12.248Z,12.23
2022-08-24T01:26:38.746Z,11.63
2022-08-24T01:30:53.084Z,16.85
2022-08-24T01:35:09.761Z,13.38
2022-08-24T01:39:32.973Z,12.37
2022-08-24T01:43:48.672Z,13.10
2022-08-24T01:48:03.190Z,11.07
2022-08-24T01:52:19.644Z,12.07
2022-08-24T01:56:34.754Z,13.73
2022-08-24T02:00:52.098Z,14.30
2022-08-24T02:05:06.876Z,15.07
2022-08-24T02:09:20.976Z,15.93
2022-08-24T02:13:35.649Z,20.40
2022-08-24T02:17:50.974Z,15.77
2022-08-24T02:22:06.195Z,15.80
2022-08-24T02:26:23.354Z,14.82
2022-08-24T02:30:42.729Z,12.63
2022-08-24T02:34:58.293Z,15.23
2022-08-24T02:39:12.740Z,14.52
2022-08-24T02:43:26.917Z,16.60
2022-08-24T02:47:42.317Z,15.77
2022-08-24T02:51:57.888Z,14.38
2022-08-24T02:56:12.248Z,13.45
2022-08-24T03:00:27.961Z,17.67
2022-08-24T03:04:43.441Z,15.87
2022-08-24T03:09:06.217Z,14.70
2022-08-24T03:13:20.366Z,12.32
2022-08-24T03:17:35.043Z,14.37
2022-08-24T03:21:49.120Z,17.70
2022-08-24T03:26:04.451Z,15.98
2022-08-24T03:30:18.701Z,15.33
2022-08-24T03:34:34.488Z,15.52
2022-08-24T03:38:48.418Z,16.05
2022-08-24T03:43:04.429Z,14.10
2022-08-24T03:47:18.919Z,14.60
2022-08-24T03:51:32.843Z,16.88
2022-08-24T03:55:46.702Z,14.02
2022-08-24T04:00:02.089Z,16.10
2022-08-24T04:04:17.199Z,14.88
2022-08-24T04:08:31.750Z,14.43
2022-08-24T04:12:46.404Z,13.57
2022-08-24T04:17:02.298Z,14.85
2022-08-24T04:21:26.564Z,15.48
2022-08-24T04:25:42.530Z,15.82
2022-08-24T04:29:56.416Z,15.80
2022-08-24T04:34:14.967Z,17.23
2022-08-24T04:38:30.027Z,15.18
2022-08-24T04:43:02.744Z,14.43
2022-08-24T04:47:18.829Z,12.20
2022-08-24T04:51:36.712Z,12.57
2022-08-24T04:55:52.382Z,13.73
2022-08-24T05:00:09.560Z,13.60
2022-08-24T05:04:24.391Z,15.73
2022-08-24T05:08:40.936Z,12.13
2022-08-24T05:12:54.977Z,12.63
2022-08-24T05:17:09.262Z,10.50
2022-08-24T05:21:26.039Z,13.38
2022-08-24T05:25:43.956Z,13.50
2022-08-24T05:29:58.440Z,12.35
2022-08-24T05:34:12.518Z,15.82
2022-08-24T05:38:26.420Z,12.03
2022-08-24T05:42:42.175Z,13.05
2022-08-24T05:46:58.204Z,11.25
2022-08-24T05:51:13.392Z,13.13
2022-08-24T05:55:40.935Z,12.63
2022-08-24T05:59:56.445Z,14.00
2022-08-24T06:04:10.233Z,13.02
2022-08-24T06:08:24.704Z,12.07
2022-08-24T06:12:41.630Z,11.90
2022-08-24T06:16:57.716Z,11.38
2022-08-24T06:21:13.995Z,12.43
2022-08-24T06:25:51.479Z,12.57
2022-08-24T06:30:09.672Z,14.10
2022-08-24T06:34:43.774Z,11.90
2022-08-24T06:38:57.738Z,12.03
2022-08-24T06:43:12.467Z,11.45
2022-08-24T06:47:33.969Z,12.98
2022-08-24T06:51:50.998Z,12.20
2022-08-24T06:56:06.444Z,11.70
2022-08-24T07:00:21.753Z,11.18
2022-08-24T07:04:37.245Z,10.63
2022-08-24T07:09:12.551Z,12.50
2022-08-24T07:13:26.565Z,12.05
2022-08-24T07:17:40.951Z,10.35
2022-08-24T07:21:57.953Z,10.90
2022-08-24T07:26:21.414Z,12.60
2022-08-24T07:30:36.694Z,10.88
2022-08-24T07:34:51.407Z,11.67
2022-08-24T07:39:08.023Z,10.27
2022-08-24T07:43:24.928Z,11.35
2022-08-24T07:47:43.252Z,9.70
2022-08-24T07:52:22.410Z,8.75
2022-08-24T07:56:36.768Z,11.80
2022-08-24T08:00:52.530Z,9.48
2022-08-24T08:05:08.522Z,9.97
2022-08-24T08:09:28.276Z,11.27
2022-08-24T08:18:02.808Z,12.77
2022-08-24T08:22:35.370Z,8.55
2022-08-24T08:27:18.298Z,9.02
2022-08-24T08:31:34.262Z,9.93
2022-08-24T08:35:52.367Z,9.20
2022-08-24T08:40:12.441Z,8.77
2022-08-24T08:44:41.125Z,8.05
2022-08-24T08:49:13.283Z,9.47
2022-08-24T08:53:56.784Z,10.52
2022-08-24T08:58:29.698Z,7.82
2022-08-24T09:03:21.750Z,8.80
2022-08-24T09:08:02.385Z,9.27
2022-08-24T09:12:32.454Z,8.63
2022-08-24T09:17:00.706Z,8.73
2022-08-24T09:21:40.532Z,8.52
2022-08-24T09:26:03.447Z,7.38
2022-08-24T09:30:24.782Z,7.35
2022-08-24T09:34:59.739Z,7.17
2022-08-24T09:39:35.892Z,9.52
2022-08-24T09:44:14.277Z,7.03
2022-08-24T09:49:20.174Z,8.60
2022-08-24T09:54:02.036Z,8.80
2022-08-24T09:58:25.349Z,5.88
2022-08-24T10:02:53.899Z,8.17
2022-08-24T10:07:25.147Z,8.00
2022-08-24T10:11:50.402Z,8.98
2022-08-24T10:16:20.180Z,6.93
2022-08-24T10:20:55.531Z,9.00
2022-08-24T10:25:27.803Z,9.00
2022-08-24T10:30:09.088Z,8.82
2022-08-24T10:34:38.702Z,7.93
2022-08-24T10:39:21.520Z,7.55
2022-08-24T10:44:08.742Z,7.25
2022-08-24T10:48:45.107Z,7.50
2022-08-24T10:53:27.410Z,6.75
2022-08-24T10:57:48.566Z,8.15
2022-08-24T11:02:12.544Z,6.47
2022-08-24T11:06:31.950Z,7.67
2022-08-24T11:10:45.770Z,6.45
2022-08-24T11:15:01.494Z,9.00
2022-08-24T11:19:30.199Z,7.20
2022-08-24T11:23:46.094Z,9.43
2022-08-24T11:28:06.620Z,7.75
2022-08-24T11:32:29.194Z,9.90
2022-08-24T11:36:44.047Z,7.07
2022-08-24T11:41:07.862Z,8.70
2022-08-24T11:45:29.878Z,7.95
2022-08-24T11:49:52.943Z,6.70
2022-08-24T11:54:14.760Z,9.20
2022-08-24T11:58:44.263Z,8.98
2022-08-24T12:03:04.383Z,6.90
2022-08-24T12:07:31.661Z,7.10
2022-08-24T12:11:53.022Z,9.82
2022-08-24T12:16:14.257Z,9.23
2022-08-24T12:20:35.693Z,9.38
2022-08-24T12:24:52.475Z,9.25
2022-08-24T12:29:11.172Z,9.63
2022-08-24T12:33:32.631Z,13.23
2022-08-24T12:37:57.432Z,11.75
2022-08-24T12:42:18.219Z,8.00
2022-08-24T12:46:32.488Z,7.30
2022-08-24T12:51:04.111Z,7.63
2022-08-24T12:55:52.362Z,8.60
2022-08-24T13:00:12.074Z,9.23
2022-08-24T13:04:40.482Z,8.00
2022-08-24T13:09:09.368Z,8.18
2022-08-24T13:13:46.209Z,9.07
2022-08-24T13:18:03.621Z,6.97
2022-08-24T13:22:47.775Z,7.68
2022-08-24T13:27:49.675Z,10.00
2022-08-24T13:32:03.979Z,8.03
2022-08-24T13:36:44.979Z,7.70
2022-08-24T13:41:06.617Z,7.13
2022-08-24T13:45:32.580Z,8.73
2022-08-24T14:27:43.466Z,7.55
2022-08-24T14:32:30.036Z,7.20
2022-08-24T14:36:55.025Z,8.38
2022-08-24T14:41:31.530Z,9.00
2022-08-24T14:45:57.406Z,8.00
2022-08-24T14:50:15.766Z,8.27
2022-08-24T14:54:39.785Z,7.30
2022-08-24T14:59:03.641Z,9.67
2022-08-24T15:03:34.072Z,9.10
2022-08-24T15:07:56.915Z,8.52
2022-08-24T15:12:21.452Z,7.03
2022-08-24T15:16:53.249Z,8.67
2022-08-24T15:21:19.211Z,7.47
2022-08-24T15:25:38.314Z,9.25
2022-08-24T15:29:56.165Z,11.33
2022-08-24T15:34:10.431Z,8.18
2022-08-24T15:38:32.760Z,8.55
2022-08-24T15:42:50.947Z,8.20
2022-08-24T15:47:15.746Z,9.77
2022-08-24T15:51:37.748Z,8.32
2022-08-24T15:55:53.802Z,8.73
2022-08-24T16:00:12.918Z,9.77
2022-08-24T16:04:44.074Z,8.60
2022-08-24T16:09:03.728Z,8.43
2022-08-24T16:13:28.345Z,10.47
2022-08-24T16:17:51.086Z,7.63
2022-08-24T16:22:07.946Z,8.70
2022-08-24T16:26:26.377Z,11.50
2022-08-24T16:30:49.998Z,8.00
2022-08-24T16:35:18.956Z,8.13
2022-08-24T16:39:33.421Z,9.70
2022-08-24T16:43:48.007Z,8.40
2022-08-24T16:48:03.501Z,10.55
2022-08-24T16:52:17.628Z,8.20
2022-08-24T16:56:31.385Z,10.77
2022-08-24T17:00:46.058Z,8.38
2022-08-24T17:05:01.397Z,9.32
2022-08-24T17:09:15.173Z,8.97
2022-08-24T17:13:48.397Z,9.77
2022-08-24T17:18:06.465Z,9.90
2022-08-24T17:22:22.892Z,10.05
2022-08-24T17:26:38.107Z,11.27
2022-08-24T17:30:59.487Z,11.40
2022-08-24T17:35:13.495Z,11.38
2022-08-24T17:39:28.853Z,12.30
2022-08-24T17:43:42.912Z,11.75
2022-08-24T17:47:57.110Z,15.23
2022-08-24T17:52:11.195Z,11.30
2022-08-24T17:56:27.651Z,10.90
2022-08-24T18:00:41.797Z,11.88
2022-08-24T18:04:55.692Z,12.45
2022-08-24T18:09:16.431Z,13.40
2022-08-24T18:13:31.638Z,12.98
2022-08-24T18:17:48.078Z,10.18
2022-08-24T18:22:02.273Z,11.53
2022-08-24T18:26:20.131Z,13.32
2022-08-24T18:30:35.952Z,10.95
2022-08-24T18:34:51.253Z,11.70
2022-08-24T18:39:07.253Z,12.00
2022-08-24T18:43:23.326Z,14.05
2022-08-24T18:47:38.984Z,13.35
2022-08-24T18:51:53.024Z,13.07
2022-08-24T18:56:11.818Z,13.80
2022-08-24T19:00:26.621Z,12.07
2022-08-24T19:04:47.250Z,12.60
2022-08-24T19:09:00.981Z,11.70
2022-08-24T19:13:16.135Z,11.80
2022-08-24T19:17:30.205Z,16.13
2022-08-24T19:21:45.466Z,12.35
2022-08-24T19:26:00.267Z,14.63
2022-08-24T19:30:14.875Z,14.10
2022-08-24T19:34:29.708Z,13.20
2022-08-24T19:38:45.258Z,13.02
2022-08-24T19:42:59.346Z,16.15
2022-08-24T19:47:13.662Z,16.53
2022-08-24T19:51:27.768Z,14.10
2022-08-24T19:55:42.818Z,16.95
2022-08-24T19:59:59.717Z,12.63
2022-08-24T20:04:13.617Z,13.00
2022-08-24T20:08:27.375Z,13.60
2022-08-24T20:12:44.589Z,14.50
2022-08-24T20:16:58.660Z,16.80
2022-08-24T20:21:12.671Z,16.58
2022-08-24T20:25:26.406Z,16.10
2022-08-24T20:29:43.026Z,14.17
2022-08-24T20:33:57.251Z,17.17
2022-08-24T20:38:13.181Z,18.25
2022-08-24T20:42:28.751Z,14.67
2022-08-24T20:46:46.740Z,16.50
2022-08-24T20:51:01.619Z,14.88
2022-08-24T20:55:15.773Z,15.02
2022-08-24T20:59:30.416Z,16.30
2022-08-24T21:03:45.778Z,15.70
2022-08-24T21:07:59.683Z,15.20
2022-08-24T21:12:13.511Z,16.37
2022-08-24T21:16:30.931Z,14.27
2022-08-24T21:21:00.795Z,15.52
2022-08-24T21:25:19.033Z,11.37
2022-08-24T21:29:33.399Z,13.25
2022-08-24T21:34:04.892Z,14.73
2022-08-24T21:38:20.818Z,15.10
2022-08-24T21:42:35.149Z,14.60
2022-08-24T21:46:51.864Z,14.18
2022-08-24T21:51:06.210Z,17.65
2022-08-24T21:55:21.548Z,17.67
2022-08-24T21:59:36.082Z,17.10
2022-08-24T22:03:49.996Z,18.75
2022-08-24T22:08:04.501Z,17.47
2022-08-24T22:12:20.047Z,20.90
2022-08-24T22:16:36.884Z,18.23
2022-08-24T22:20:51.637Z,18.92
2022-08-24T22:25:06.363Z,17.30
2022-08-24T22:29:22.481Z,20.17
2022-08-24T22:33:36.809Z,19.73
2022-08-24T22:37:50.883Z,18.70
2022-08-24T22:42:05.155Z,17.50
2022-08-24T22:46:21.579Z,18.08
2022-08-24T22:50:35.464Z,16.33
2022-08-24T22:54:49.687Z,15.77
2022-08-24T22:59:04.503Z,17.17
2022-08-24T23:03:20.093Z,17.10
2022-08-24T23:07:35.590Z,16.77
2022-08-24T23:11:50.720Z,18.90
2022-08-24T23:16:05.909Z,18.63
2022-08-24T23:20:23.723Z,20.87
2022-08-24T23:24:37.879Z,20.35
2022-08-24T23:28:51.722Z,17.80
2022-08-24T23:33:05.626Z,18.97
2022-08-24T23:37:20.881Z,23.52
2022-08-24T23:41:38.232Z,20.95
2022-08-24T23:45:54.955Z,18.60
2022-08-24T23:50:11.303Z,19.30
2022-08-24T23:54:27.128Z,19.65
2022-08-24T23:58:42.018Z,21.50
